KOAK/OAK METAR and TAF weather

Enter ICAO airport designator
Station Type Date Time Source
KOAK METAR 2019/04/25 17:53 UTC NOAA

KOAK 251753Z 30009KT 8SM FEW040 18/12 A2998 RMK AO2 SLP151 T01830117 10183 20117 53004


Station Type Date Time Source
KOAK Decoded METAR 2019/04/25 17:53 UTC NOAA

METRO OAKLAND INTERNATIONAL AIRPORT , CA, United States (KOAK) 37-43N 122-14W 26M
Apr 25, 2019 - 01:53 PM EDT / 2019.04.25 1753 UTC
Wind: from the WNW (300 degrees) at 10 MPH (9 KT):0
Visibility: 8 mile(s):0
Sky conditions: mostly clear
Temperature: 64.9 F (18.3 C)
Dew Point: 53.1 F (11.7 C)
Relative Humidity: 65%
Pressure (altimeter): 29.98 in. Hg (1015 hPa)
Pressure tendency: 0.01 inches (0.4 hPa) higher than three hours ago
ob: KOAK 251753Z 30009KT 8SM FEW040 18/12 A2998 RMK AO2 SLP151 T01830117 10183 20117 53004
cycle: 18

Station Type Date Time Source
KOAK TAF 2019/04/25 18:24 UTC NOAA

TAF KOAK 251721Z 2518/2624 30006KT P6SM FEW010
FM252100 30012KT P6SM FEW250
FM260200 31008KT P6SM FEW015 SCT250
FM260800 30005KT P6SM SCT012
FM261000 29004KT P6SM BKN012
FM261700 28005KT P6SM SCT015
FM262100 30009KT P6SM FEW015 SCT250

Example: see airport list